createdAt,value
2022-11-15T00:02:39.414Z,85.95
2022-11-15T00:05:26.286Z,86.05
2022-11-15T00:08:13.941Z,86.14
2022-11-15T00:11:01.626Z,85.97
2022-11-15T00:13:48.395Z,85.96
2022-11-15T00:16:34.693Z,86.05
2022-11-15T00:19:21.199Z,85.96
2022-11-15T00:22:07.459Z,85.82
2022-11-15T00:24:55.914Z,85.83
2022-11-15T00:27:42.033Z,85.88
2022-11-15T00:30:29.317Z,86.02
2022-11-15T00:33:15.705Z,85.96
2022-11-15T00:36:03.280Z,85.77
2022-11-15T00:38:49.790Z,85.77
2022-11-15T00:41:37.547Z,86.10
2022-11-15T00:44:24.221Z,85.64
2022-11-15T00:47:10.335Z,85.61
2022-11-15T00:49:57.449Z,85.70
2022-11-15T00:52:44.049Z,85.53
2022-11-15T00:55:31.268Z,85.48
2022-11-15T00:58:19.079Z,85.16
2022-11-15T01:01:10.043Z,84.75
2022-11-15T01:04:01.105Z,85.10
2022-11-15T01:06:47.794Z,85.03
2022-11-15T01:09:34.833Z,84.88
2022-11-15T01:12:21.545Z,84.75
2022-11-15T01:15:10.469Z,84.81
2022-11-15T01:17:57.158Z,84.63
2022-11-15T01:20:44.581Z,84.34
2022-11-15T01:23:32.189Z,84.34
2022-11-15T01:26:18.510Z,84.90
2022-11-15T01:29:05.555Z,84.88
2022-11-15T01:31:54.849Z,85.09
2022-11-15T01:34:41.848Z,84.91
2022-11-15T01:37:28.215Z,84.96
2022-11-15T01:40:14.885Z,84.73
2022-11-15T01:43:01.145Z,84.52
2022-11-15T01:45:52.157Z,84.42
2022-11-15T01:48:39.986Z,84.45
2022-11-15T01:51:30.208Z,84.62
2022-11-15T01:54:20.706Z,84.75
2022-11-15T01:57:11.572Z,85.08
2022-11-15T02:00:01.642Z,84.35
2022-11-15T02:02:47.748Z,83.95
2022-11-15T02:05:38.666Z,83.60
2022-11-15T02:08:24.760Z,83.63
2022-11-15T02:11:11.624Z,83.70
2022-11-15T02:13:59.985Z,83.68
2022-11-15T02:16:53.536Z,84.08
2022-11-15T02:20:04.866Z,84.33
2022-11-15T02:23:12.003Z,84.43
2022-11-15T02:26:18.597Z,84.48
2022-11-15T02:29:09.687Z,84.24
2022-11-15T02:32:05.269Z,85.19
2022-11-15T02:35:02.764Z,85.94
2022-11-15T02:37:58.065Z,84.40
2022-11-15T02:40:54.165Z,83.20
2022-11-15T02:44:00.488Z,82.79
2022-11-15T02:47:09.157Z,83.08
2022-11-15T02:50:01.105Z,83.83
2022-11-15T02:52:48.117Z,84.63
2022-11-15T02:55:36.785Z,83.98
2022-11-15T02:58:39.401Z,84.51
2022-11-15T03:01:40.332Z,84.96
2022-11-15T03:04:34.885Z,85.53
2022-11-15T03:07:30.770Z,86.12
2022-11-15T03:10:24.797Z,85.23
2022-11-15T03:13:21.844Z,85.15
2022-11-15T03:16:12.885Z,85.56
2022-11-15T03:19:04.878Z,85.95
2022-11-15T03:21:53.100Z,85.42
2022-11-15T03:24:43.175Z,85.81
2022-11-15T03:27:33.441Z,86.50
2022-11-15T03:30:20.904Z,85.95
2022-11-15T03:33:10.219Z,86.63
2022-11-15T03:35:57.605Z,86.68
2022-11-15T03:38:47.063Z,86.28
2022-11-15T03:41:41.493Z,86.58
2022-11-15T03:44:39.212Z,86.12
2022-11-15T03:47:31.140Z,85.58
2022-11-15T03:50:21.055Z,85.98
2022-11-15T03:53:07.835Z,86.09
2022-11-15T03:55:54.424Z,85.80
2022-11-15T03:58:43.184Z,85.55
2022-11-15T04:01:29.602Z,85.67
2022-11-15T04:04:16.361Z,86.64
2022-11-15T04:07:03.014Z,86.67
2022-11-15T04:10:06.750Z,86.29
2022-11-15T04:12:53.012Z,86.27
2022-11-15T04:15:40.641Z,86.41
2022-11-15T04:18:27.441Z,85.95
2022-11-15T04:21:31.693Z,86.35
2022-11-15T04:24:18.588Z,86.34
2022-11-15T04:27:05.081Z,86.06
2022-11-15T04:29:51.592Z,86.27
2022-11-15T04:32:39.448Z,86.68
2022-11-15T04:35:26.392Z,86.54
2022-11-15T04:38:13.280Z,86.69
2022-11-15T04:40:59.615Z,86.59
2022-11-15T04:43:46.430Z,86.77
2022-11-15T04:46:32.872Z,86.31
2022-11-15T04:49:21.026Z,86.23
2022-11-15T04:52:07.541Z,86.63
2022-11-15T04:54:54.329Z,86.80
2022-11-15T04:57:40.465Z,86.25
2022-11-15T05:00:28.013Z,85.55
2022-11-15T05:03:32.434Z,85.65
2022-11-15T05:06:20.363Z,85.54
2022-11-15T05:09:06.941Z,85.79
2022-11-15T05:11:53.090Z,86.05
2022-11-15T05:14:39.961Z,86.56
2022-11-15T05:17:26.125Z,85.29
2022-11-15T05:20:13.647Z,84.41
2022-11-15T05:23:01.410Z,84.23
2022-11-15T05:25:47.580Z,84.35
2022-11-15T05:28:35.560Z,85.01
2022-11-15T05:31:21.660Z,85.78
2022-11-15T05:34:08.383Z,85.60
2022-11-15T05:36:55.635Z,85.37
2022-11-15T05:39:43.406Z,85.03
2022-11-15T05:42:30.061Z,85.51
2022-11-15T05:45:21.287Z,85.51
2022-11-15T05:48:12.224Z,85.75
2022-11-15T05:50:59.008Z,85.01
2022-11-15T05:53:46.489Z,85.25
2022-11-15T05:56:34.424Z,84.49
2022-11-15T05:59:21.404Z,84.04
2022-11-15T06:02:07.532Z,83.81
2022-11-15T06:04:54.969Z,84.37
2022-11-15T06:07:41.458Z,84.93
2022-11-15T06:10:28.186Z,84.75
2022-11-15T06:13:15.873Z,84.75
2022-11-15T06:16:02.483Z,84.61
2022-11-15T06:18:49.155Z,85.10
2022-11-15T06:21:35.475Z,85.61
2022-11-15T06:24:22.869Z,85.27
2022-11-15T06:27:09.420Z,85.43
2022-11-15T06:29:57.346Z,85.67
2022-11-15T06:32:43.641Z,86.13
2022-11-15T06:35:30.892Z,85.32
2022-11-15T06:38:17.564Z,85.59
2022-11-15T06:41:05.158Z,85.07
2022-11-15T06:43:52.140Z,85.26
2022-11-15T06:46:39.903Z,85.53
2022-11-15T06:52:34.897Z,85.25
2022-11-15T06:55:21.336Z,85.48
2022-11-15T06:58:08.146Z,85.28
2022-11-15T07:00:54.304Z,84.79
2022-11-15T07:03:43.941Z,84.64
2022-11-15T07:06:30.624Z,85.06
2022-11-15T07:09:16.914Z,85.35
2022-11-15T07:12:07.447Z,85.38
2022-11-15T07:14:55.286Z,84.76
2022-11-15T07:17:41.898Z,84.78
2022-11-15T07:20:30.393Z,84.55
2022-11-15T07:23:16.872Z,84.17
2022-11-15T07:26:03.098Z,83.94
2022-11-15T07:28:50.081Z,83.88
2022-11-15T07:31:36.432Z,82.35
2022-11-15T07:34:23.316Z,80.67
2022-11-15T07:37:10.859Z,78.19
2022-11-15T07:39:57.388Z,78.26
2022-11-15T07:42:57.523Z,77.13
2022-11-15T07:45:45.152Z,76.63
2022-11-15T07:48:43.512Z,77.35
2022-11-15T07:51:30.893Z,78.20
2022-11-15T07:54:18.616Z,78.72
2022-11-15T07:57:07.575Z,79.39
2022-11-15T07:59:55.306Z,79.58
2022-11-15T08:02:42.173Z,81.04
2022-11-15T08:05:29.311Z,79.67
2022-11-15T08:08:16.008Z,78.66
2022-11-15T08:11:03.700Z,77.82
2022-11-15T08:13:50.392Z,77.88
2022-11-15T08:16:36.506Z,78.62
2022-11-15T08:19:23.240Z,78.48
2022-11-15T08:22:09.636Z,76.98
2022-11-15T08:24:56.649Z,77.08
2022-11-15T08:27:44.812Z,77.34
2022-11-15T08:30:33.070Z,77.55
2022-11-15T08:33:19.780Z,76.85
2022-11-15T08:36:06.383Z,77.41
2022-11-15T08:38:52.851Z,72.27
2022-11-15T08:41:39.626Z,65.18
2022-11-15T08:44:27.779Z,60.06
2022-11-15T08:47:14.635Z,57.35
2022-11-15T08:50:01.313Z,55.24
2022-11-15T08:52:49.081Z,53.02
2022-11-15T08:55:39.113Z,52.57
2022-11-15T08:58:26.135Z,51.59
2022-11-15T09:01:19.442Z,50.42
2022-11-15T09:04:07.278Z,52.07
2022-11-15T09:06:53.653Z,50.93
2022-11-15T09:09:40.304Z,51.06
2022-11-15T09:12:26.767Z,50.55
2022-11-15T09:15:13.550Z,47.96
2022-11-15T09:18:01.787Z,48.01
2022-11-15T09:20:48.188Z,46.78
2022-11-15T09:23:35.292Z,46.21
2022-11-15T09:26:21.414Z,44.92
2022-11-15T09:29:08.689Z,43.98
2022-11-15T09:31:54.865Z,43.67
2022-11-15T09:34:43.401Z,44.81
2022-11-15T09:37:29.674Z,44.09
2022-11-15T09:40:20.256Z,43.68
2022-11-15T09:43:31.177Z,42.92
2022-11-15T09:46:24.797Z,42.96
2022-11-15T09:49:19.780Z,41.84
2022-11-15T09:52:13.474Z,40.53
2022-11-15T09:54:53.197Z,39.35
2022-11-15T09:57:31.925Z,38.86
2022-11-15T10:03:12.278Z,37.63
2022-11-15T10:05:43.245Z,39.35
2022-11-15T10:08:53.639Z,39.44
2022-11-15T10:11:40.208Z,38.74
2022-11-15T10:14:13.789Z,37.57
2022-11-15T10:17:16.828Z,37.13
2022-11-15T10:20:02.528Z,36.97
2022-11-15T10:22:40.427Z,37.25
2022-11-15T10:25:21.377Z,38.50
2022-11-15T10:27:59.769Z,36.35
2022-11-15T10:30:39.132Z,37.03
2022-11-15T10:33:26.073Z,36.20
2022-11-15T10:36:19.045Z,36.56
2022-11-15T10:38:58.683Z,36.02
2022-11-15T10:41:38.565Z,35.86
2022-11-15T10:44:27.749Z,36.02
2022-11-15T10:47:25.578Z,36.61
2022-11-15T10:49:59.157Z,35.93
2022-11-15T10:52:27.536Z,36.57
2022-11-15T10:54:59.298Z,38.56
2022-11-15T10:57:30.484Z,38.12
2022-11-15T11:00:01.189Z,38.75
2022-11-15T11:02:34.826Z,39.35
2022-11-15T11:05:04.123Z,39.67
2022-11-15T11:07:33.547Z,39.71
2022-11-15T11:10:13.287Z,40.09
2022-11-15T11:12:52.397Z,39.54
2022-11-15T11:15:20.468Z,38.97
2022-11-15T11:17:59.698Z,39.73
2022-11-15T11:20:33.202Z,40.83
2022-11-15T11:23:16.040Z,40.85
2022-11-15T11:25:53.136Z,41.86
2022-11-15T11:28:38.876Z,41.85
2022-11-15T11:31:21.149Z,43.30
2022-11-15T11:33:57.241Z,44.74
2022-11-15T11:36:29.450Z,45.15
2022-11-15T11:39:08.766Z,45.50
2022-11-15T11:41:55.523Z,47.16
2022-11-15T11:44:45.960Z,47.92
2022-11-15T11:47:17.000Z,47.57
2022-11-15T11:49:48.465Z,45.89
2022-11-15T11:52:20.998Z,45.68
2022-11-15T11:54:58.033Z,45.73
2022-11-15T11:57:35.354Z,45.43
2022-11-15T12:00:14.309Z,43.94
2022-11-15T12:02:48.329Z,43.31
2022-11-15T12:05:25.325Z,44.44
2022-11-15T12:08:00.478Z,44.10
2022-11-15T12:10:33.117Z,45.43
2022-11-15T12:13:06.413Z,45.20
2022-11-15T12:15:43.028Z,44.85
2022-11-15T12:18:17.073Z,45.03
2022-11-15T12:20:54.821Z,45.26
2022-11-15T12:23:29.868Z,43.30
2022-11-15T12:26:02.562Z,44.55
2022-11-15T12:28:52.896Z,45.01
2022-11-15T12:31:38.829Z,45.29
2022-11-15T12:34:18.096Z,46.75
2022-11-15T12:36:46.345Z,47.01
2022-11-15T12:39:14.611Z,47.40
2022-11-15T12:41:43.463Z,47.71
2022-11-15T12:44:14.550Z,47.99
2022-11-15T12:47:24.416Z,47.66
2022-11-15T12:49:52.855Z,47.85
2022-11-15T12:52:21.370Z,47.98
2022-11-15T12:55:01.190Z,48.13
2022-11-15T12:57:43.998Z,48.47
2022-11-15T13:00:44.567Z,48.17
2022-11-15T13:03:34.415Z,48.48
2022-11-15T13:06:10.730Z,49.97
2022-11-15T13:08:48.536Z,50.68
2022-11-15T13:11:49.060Z,51.74
2022-11-15T13:14:43.357Z,50.33
2022-11-15T13:17:38.679Z,52.07
2022-11-15T13:20:27.790Z,53.12
2022-11-15T13:23:03.442Z,53.63
2022-11-15T13:25:54.989Z,53.99
2022-11-15T13:28:29.189Z,54.41
2022-11-15T13:30:58.945Z,54.85
2022-11-15T13:33:35.953Z,54.51
2022-11-15T13:36:09.350Z,54.79
2022-11-15T13:38:40.161Z,54.76
2022-11-15T13:41:21.503Z,55.27
2022-11-15T13:43:50.043Z,56.65
2022-11-15T13:46:20.232Z,55.36
2022-11-15T13:48:52.531Z,55.01
2022-11-15T13:51:27.063Z,55.53
2022-11-15T13:53:59.966Z,56.31
2022-11-15T13:56:31.181Z,58.22
2022-11-15T13:58:58.881Z,57.72
2022-11-15T14:01:34.032Z,59.00
2022-11-15T14:04:03.075Z,60.06
2022-11-15T14:06:32.959Z,60.59
2022-11-15T14:09:31.057Z,60.22
2022-11-15T14:11:59.461Z,60.57
2022-11-15T14:14:28.622Z,60.72
2022-11-15T14:16:58.297Z,62.24
2022-11-15T14:19:38.104Z,62.21
2022-11-15T14:22:29.312Z,62.84
2022-11-15T14:25:17.190Z,63.80
2022-11-15T14:27:46.982Z,64.86
2022-11-15T14:30:16.774Z,64.72
2022-11-15T14:32:48.563Z,65.59
2022-11-15T14:35:19.622Z,67.09
2022-11-15T14:37:49.610Z,66.96
2022-11-15T14:40:20.553Z,66.57
2022-11-15T14:42:50.809Z,66.60
2022-11-15T14:45:20.386Z,67.09
2022-11-15T14:47:48.872Z,66.95
2022-11-15T14:50:18.564Z,67.17
2022-11-15T14:52:49.119Z,67.55
2022-11-15T14:55:21.524Z,68.02
2022-11-15T14:57:49.846Z,68.18
2022-11-15T15:00:18.903Z,68.50
2022-11-15T15:02:48.330Z,68.71
2022-11-15T15:05:18.736Z,68.76
2022-11-15T15:07:49.063Z,68.71
2022-11-15T15:10:39.050Z,69.32
2022-11-15T15:13:07.805Z,69.48
2022-11-15T15:15:37.239Z,69.73
2022-11-15T15:18:07.183Z,69.95
2022-11-15T15:20:34.844Z,70.00
2022-11-15T15:23:04.189Z,70.32
2022-11-15T15:25:33.836Z,70.43
2022-11-15T15:28:02.668Z,70.43
2022-11-15T15:30:31.841Z,70.51
2022-11-15T15:33:00.029Z,70.70
2022-11-15T15:35:32.020Z,70.45
2022-11-15T15:38:00.319Z,70.13
2022-11-15T15:40:30.570Z,70.26
2022-11-15T15:42:58.766Z,70.52
2022-11-15T15:45:27.827Z,70.70
2022-11-15T15:47:56.143Z,70.91
2022-11-15T15:50:26.654Z,70.61
2022-11-15T15:52:57.563Z,70.68
2022-11-15T15:55:25.843Z,70.67
2022-11-15T15:57:55.564Z,70.85
2022-11-15T16:00:25.629Z,70.61
2022-11-15T16:02:53.656Z,71.27
2022-11-15T16:05:22.380Z,71.41
2022-11-15T16:07:50.384Z,71.20
2022-11-15T16:10:22.159Z,71.57
2022-11-15T16:12:50.709Z,72.14
2022-11-15T16:15:20.705Z,72.49
2022-11-15T16:17:52.069Z,72.69
2022-11-15T16:20:34.465Z,72.82
2022-11-15T16:23:08.767Z,73.12
2022-11-15T16:25:42.096Z,73.29
2022-11-15T16:28:21.374Z,73.21
2022-11-15T16:30:56.597Z,73.30
2022-11-15T16:33:25.044Z,73.12
2022-11-15T16:35:53.053Z,73.29
2022-11-15T16:38:20.697Z,73.18
2022-11-15T16:40:49.161Z,73.46
2022-11-15T16:43:17.034Z,74.00
2022-11-15T16:45:44.849Z,74.31
2022-11-15T16:48:25.188Z,74.55
2022-11-15T16:50:56.508Z,74.62
2022-11-15T16:53:24.890Z,75.04
2022-11-15T16:55:53.603Z,75.44
2022-11-15T16:58:21.254Z,75.53
2022-11-15T17:00:52.204Z,75.33
2022-11-15T17:03:21.669Z,75.86
2022-11-15T17:05:49.673Z,75.85
2022-11-15T17:08:20.680Z,76.00
2022-11-15T17:10:48.749Z,76.13
2022-11-15T17:13:16.843Z,75.95
2022-11-15T17:15:45.506Z,76.29
2022-11-15T17:18:15.388Z,76.57
2022-11-15T17:20:44.501Z,76.79
2022-11-15T17:23:16.134Z,76.80
2022-11-15T17:25:44.005Z,76.93
2022-11-15T17:28:12.093Z,77.66
2022-11-15T17:30:43.005Z,77.29
2022-11-15T17:33:10.634Z,78.90
2022-11-15T17:35:38.697Z,79.23
2022-11-15T17:38:07.685Z,79.07
2022-11-15T17:40:35.714Z,79.35
2022-11-15T17:43:03.564Z,79.56
2022-11-15T17:45:31.602Z,79.47
2022-11-15T17:47:59.247Z,79.32
2022-11-15T17:50:26.885Z,79.42
2022-11-15T17:52:54.933Z,79.55
2022-11-15T17:55:24.251Z,79.46
2022-11-15T17:57:51.875Z,79.91
2022-11-15T18:00:21.875Z,79.89
2022-11-15T18:02:49.494Z,79.99
2022-11-15T18:05:17.494Z,79.84
2022-11-15T18:07:45.144Z,80.21
2022-11-15T18:10:12.780Z,80.20
2022-11-15T18:12:41.784Z,80.51
2022-11-15T18:15:10.603Z,80.07
2022-11-15T18:17:38.251Z,80.02
2022-11-15T18:20:07.153Z,80.04
2022-11-15T18:22:35.648Z,80.36
2022-11-15T18:25:03.307Z,80.41
2022-11-15T18:27:30.977Z,80.66
2022-11-15T18:29:59.959Z,80.75
2022-11-15T18:32:28.044Z,80.68
2022-11-15T18:34:55.694Z,80.80
2022-11-15T18:37:23.961Z,80.91
2022-11-15T18:39:53.989Z,81.04
2022-11-15T18:42:22.211Z,80.90
2022-11-15T18:44:49.836Z,81.02
2022-11-15T18:47:18.843Z,81.10
2022-11-15T18:49:46.519Z,81.25
2022-11-15T18:52:14.480Z,80.96
2022-11-15T18:54:42.224Z,80.66
2022-11-15T18:57:10.122Z,81.11
2022-11-15T18:59:37.819Z,80.94
2022-11-15T19:02:05.671Z,81.21
2022-11-15T19:04:34.681Z,81.56
2022-11-15T19:07:02.375Z,81.35
2022-11-15T19:09:32.635Z,81.62
2022-11-15T19:12:00.293Z,81.68
2022-11-15T19:14:28.495Z,81.17
2022-11-15T19:16:56.433Z,81.04
2022-11-15T19:19:25.479Z,81.27
2022-11-15T19:21:55.013Z,81.54
2022-11-15T19:24:22.640Z,81.67
2022-11-15T19:26:50.619Z,81.97
2022-11-15T19:29:18.292Z,81.95
2022-11-15T19:31:48.458Z,82.12
2022-11-15T19:34:16.472Z,82.98
2022-11-15T19:36:45.932Z,82.21
2022-11-15T19:39:17.991Z,82.35
2022-11-15T19:41:46.521Z,82.12
2022-11-15T19:44:14.781Z,82.01
2022-11-15T19:46:44.502Z,82.21
2022-11-15T19:49:12.268Z,82.07
2022-11-15T19:51:42.377Z,82.79
2022-11-15T19:54:10.544Z,82.71
2022-11-15T19:56:41.013Z,82.61
2022-11-15T19:59:11.369Z,83.01
2022-11-15T20:01:39.348Z,83.20
2022-11-15T20:04:09.787Z,83.34
2022-11-15T20:06:43.794Z,83.25
2022-11-15T20:09:14.246Z,82.95
2022-11-15T20:11:43.968Z,83.31
2022-11-15T20:14:12.916Z,82.99
2022-11-15T20:16:40.668Z,83.28
2022-11-15T20:19:08.764Z,83.18
2022-11-15T20:21:36.752Z,82.94
2022-11-15T20:24:05.349Z,83.23
2022-11-15T20:26:33.381Z,83.08
2022-11-15T20:29:03.792Z,83.09
2022-11-15T20:31:32.275Z,83.06
2022-11-15T20:34:00.022Z,82.86
2022-11-15T20:36:27.732Z,83.24
2022-11-15T20:38:58.145Z,82.92
2022-11-15T20:41:26.649Z,83.17
2022-11-15T20:43:54.303Z,83.01
2022-11-15T20:46:23.356Z,82.90
2022-11-15T20:48:51.335Z,82.88
2022-11-15T20:51:19.900Z,83.41
2022-11-15T20:53:48.572Z,83.35
2022-11-15T20:56:17.973Z,83.33
2022-11-15T20:58:46.853Z,83.63
2022-11-15T21:01:16.203Z,83.14
2022-11-15T21:03:45.418Z,83.44
2022-11-15T21:06:13.096Z,83.48
2022-11-15T21:08:58.792Z,83.36
2022-11-15T21:11:44.770Z,82.79
2022-11-15T21:14:12.684Z,82.77
2022-11-15T21:16:40.386Z,82.90
2022-11-15T21:19:10.147Z,83.34
2022-11-15T21:21:38.359Z,83.16
2022-11-15T21:24:07.605Z,83.86
2022-11-15T21:26:35.590Z,83.51
2022-11-15T21:29:03.766Z,83.62
2022-11-15T21:31:31.928Z,83.76
2022-11-15T21:34:01.867Z,83.62
2022-11-15T21:36:30.910Z,84.13
2022-11-15T21:38:58.549Z,84.38
2022-11-15T21:41:26.260Z,84.18
2022-11-15T21:43:58.327Z,83.92
2022-11-15T21:46:26.275Z,83.77
2022-11-15T21:48:53.919Z,83.57
2022-11-15T21:51:21.582Z,83.67
2022-11-15T21:53:50.596Z,83.95
2022-11-15T21:56:18.249Z,83.76
2022-11-15T21:58:46.005Z,84.06
2022-11-15T22:01:33.292Z,83.44
2022-11-15T22:04:01.484Z,83.63
2022-11-15T22:06:30.208Z,83.97
2022-11-15T22:08:59.705Z,84.17
2022-11-15T22:11:27.337Z,84.27
2022-11-15T22:13:55.433Z,84.86
2022-11-15T22:16:23.201Z,84.40
2022-11-15T22:18:50.956Z,84.42
2022-11-15T22:21:19.809Z,84.71
2022-11-15T22:23:47.446Z,84.52
2022-11-15T22:26:23.533Z,84.95
2022-11-15T22:28:52.413Z,84.86
2022-11-15T22:31:20.303Z,84.51
2022-11-15T22:33:48.148Z,84.99
2022-11-15T22:36:15.918Z,84.55
2022-11-15T22:38:43.577Z,84.87
2022-11-15T22:41:11.454Z,85.24
2022-11-15T22:43:40.629Z,85.14
2022-11-15T22:46:08.515Z,85.53
2022-11-15T22:48:38.693Z,85.24
2022-11-15T22:51:07.171Z,84.96
2022-11-15T22:53:35.121Z,85.12
2022-11-15T22:56:05.362Z,85.19
2022-11-15T22:58:33.970Z,85.44
2022-11-15T23:01:04.989Z,85.41
2022-11-15T23:03:34.063Z,85.62
2022-11-15T23:06:03.416Z,85.14
2022-11-15T23:08:31.311Z,85.13
2022-11-15T23:11:19.157Z,85.38
2022-11-15T23:13:47.272Z,85.33
2022-11-15T23:16:34.867Z,85.47
2022-11-15T23:19:05.520Z,85.58
2022-11-15T23:21:52.805Z,85.48
2022-11-15T23:24:21.715Z,85.65
2022-11-15T23:26:51.683Z,85.51
2022-11-15T23:29:21.101Z,85.36
2022-11-15T23:32:07.722Z,85.63
2022-11-15T23:34:37.933Z,85.42
2022-11-15T23:37:07.152Z,85.35
2022-11-15T23:39:34.900Z,85.24
2022-11-15T23:42:08.806Z,85.38
2022-11-15T23:44:37.099Z,85.56
2022-11-15T23:47:06.483Z,85.12
2022-11-15T23:49:34.576Z,85.64
2022-11-15T23:52:02.227Z,85.74
2022-11-15T23:54:30.615Z,85.75
2022-11-15T23:56:59.011Z,85.70
2022-11-15T23:59:26.777Z,85.50
